Time;durP1;ratioP1;P1;durP2;ratioP2;P2;SDS_P1;SDS_P2;PMS_P1;PMS_P2;Temp;Humidity;BMP_temperature;BMP_pressure;BME280_temperature;BME280_humidity;BME280_pressure;Samples;Min_cycle;Max_cycle;Signal;HPM_P1;HPM_P2
2023/07/29 00:00:57;;;;;;;0.88;0.77;;;24.30;53.50;;;;;;5081986;28;20020;-67
2023/07/29 00:03:23;;;;;;;1.45;1.00;;;24.30;53.50;;;;;;5077612;28;20036;-68
2023/07/29 00:05:49;;;;;;;1.13;0.90;;;24.30;53.50;;;;;;5079727;28;20103;-69
2023/07/29 00:08:15;;;;;;;1.05;0.95;;;24.30;53.50;;;;;;5068564;28;20502;-70
2023/07/29 00:10:40;;;;;;;1.33;1.00;;;24.30;53.60;;;;;;5076311;28;20163;-67
2023/07/29 00:13:07;;;;;;;1.13;0.90;;;24.30;53.50;;;;;;5077918;28;20024;-66
2023/07/29 00:15:32;;;;;;;1.30;0.90;;;24.20;53.50;;;;;;5078819;28;20029;-67
2023/07/29 00:17:58;;;;;;;1.13;0.85;;;24.30;53.50;;;;;;5077455;28;20392;-69
2023/07/29 00:20:24;;;;;;;1.80;1.02;;;24.30;53.50;;;;;;5077266;28;20162;-67
2023/07/29 00:22:52;;;;;;;1.30;1.00;;;24.30;53.50;;;;;;5077373;28;20020;-67
2023/07/29 00:25:18;;;;;;;2.65;1.50;;;24.30;53.50;;;;;;5077018;28;20029;-67
2023/07/29 00:27:43;;;;;;;1.33;1.00;;;24.20;53.50;;;;;;5080212;28;20039;-67
2023/07/29 00:30:09;;;;;;;1.10;0.93;;;24.20;53.50;;;;;;5082937;28;20375;-66
2023/07/29 00:32:35;;;;;;;1.10;0.90;;;24.30;53.50;;;;;;5082169;28;20064;-67
2023/07/29 00:35:01;;;;;;;1.33;1.00;;;24.20;53.40;;;;;;5079957;28;20386;-67
2023/07/29 00:37:27;;;;;;;1.55;1.10;;;24.20;53.50;;;;;;5082252;28;20029;-68
2023/07/29 00:39:53;;;;;;;1.13;0.90;;;24.20;53.50;;;;;;5080890;28;20384;-67
2023/07/29 00:42:19;;;;;;;0.80;0.80;;;24.20;53.40;;;;;;5081922;28;20024;-67
2023/07/29 00:44:44;;;;;;;1.15;0.98;;;24.20;53.40;;;;;;5081432;28;20129;-67
2023/07/29 00:47:12;;;;;;;1.10;0.90;;;24.20;53.50;;;;;;5082427;28;20032;-66
2023/07/29 00:49:38;;;;;;;1.20;0.90;;;24.20;53.90;;;;;;5078792;28;20020;-68
2023/07/29 00:52:04;;;;;;;1.17;1.00;;;24.20;53.40;;;;;;5080538;28;20038;-67
2023/07/29 00:54:30;;;;;;;0.90;0.82;;;24.20;53.40;;;;;;5081392;28;20037;-66
2023/07/29 00:56:55;;;;;;;1.38;1.08;;;24.20;53.40;;;;;;5080133;28;20104;-68
2023/07/29 00:59:22;;;;;;;1.20;0.90;;;24.20;53.40;;;;;;5082140;28;20555;-68
2023/07/29 01:01:48;;;;;;;1.15;0.90;;;24.20;53.40;;;;;;5083091;28;20425;-67
2023/07/29 01:04:14;;;;;;;1.48;0.98;;;24.20;53.40;;;;;;5079962;28;20035;-64
2023/07/29 01:07:02;;;;;;;1.42;0.95;;;24.20;53.90;;;;;;5080230;28;20446;-64
2023/07/29 01:09:59;;;;;;;1.07;0.90;;;24.20;53.50;;;;;;5082183;28;20032;-66
2023/07/29 01:12:42;;;;;;;1.10;0.90;;;24.20;54.00;;;;;;5080421;28;20043;-63
2023/07/29 01:15:19;;;;;;;1.17;0.93;;;24.20;53.40;;;;;;5078368;28;20459;-70
2023/07/29 01:18:06;;;;;;;1.50;1.00;;;24.20;53.40;;;;;;5081078;28;20046;-70
2023/07/29 01:20:36;;;;;;;1.60;1.00;;;24.10;53.40;;;;;;5081136;28;20507;-69
2023/07/29 01:23:02;;;;;;;1.20;1.00;;;24.20;53.40;;;;;;5065255;28;20583;-69
2023/07/29 01:25:28;;;;;;;1.30;0.90;;;24.20;53.40;;;;;;5081136;28;20063;-70
2023/07/29 01:27:55;;;;;;;1.23;0.90;;;24.10;53.40;;;;;;5081464;28;20021;-70
2023/07/29 01:30:25;;;;;;;1.10;0.80;;;24.10;53.40;;;;;;5064374;28;20032;-71
2023/07/29 01:33:07;;;;;;;1.15;0.90;;;24.10;53.40;;;;;;5081149;28;20028;-70
2023/07/29 01:35:41;;;;;;;1.15;1.00;;;24.10;53.40;;;;;;5079364;28;20147;-69
2023/07/29 01:38:14;;;;;;;0.95;0.82;;;24.10;53.40;;;;;;5080905;28;20503;-69
2023/07/29 01:40:41;;;;;;;1.00;0.90;;;24.10;53.40;;;;;;5080665;28;20586;-70
2023/07/29 01:43:09;;;;;;;0.98;0.80;;;24.10;53.40;;;;;;5079803;28;20074;-71
2023/07/29 01:45:37;;;;;;;1.60;0.98;;;24.10;53.40;;;;;;5080880;28;20471;-69
2023/07/29 01:48:05;;;;;;;1.25;0.90;;;24.10;53.30;;;;;;5080245;28;20534;-68
2023/07/29 01:50:31;;;;;;;1.52;1.00;;;24.10;53.40;;;;;;5078690;28;20028;-68
2023/07/29 01:52:58;;;;;;;1.40;0.90;;;24.10;53.40;;;;;;5080015;28;20024;-68
2023/07/29 01:55:23;;;;;;;1.08;0.80;;;24.10;53.40;;;;;;5080401;28;20023;-69
2023/07/29 01:57:49;;;;;;;1.20;0.90;;;24.10;53.40;;;;;;5082156;28;20020;-68
2023/07/29 02:00:15;;;;;;;1.50;0.90;;;24.10;53.40;;;;;;5078916;28;20111;-69
2023/07/29 02:02:41;;;;;;;1.13;0.90;;;24.10;53.30;;;;;;5079583;28;20032;-69
2023/07/29 02:05:07;;;;;;;1.05;0.80;;;24.10;53.40;;;;;;5077026;28;20487;-69
2023/07/29 02:07:32;;;;;;;0.90;0.80;;;24.10;53.40;;;;;;5081059;28;20078;-69
2023/07/29 02:09:58;;;;;;;1.20;0.90;;;24.10;53.40;;;;;;5080437;28;20498;-68
2023/07/29 02:12:24;;;;;;;1.45;1.00;;;24.10;53.40;;;;;;5078568;28;20037;-69
2023/07/29 02:14:49;;;;;;;1.20;0.95;;;24.10;53.40;;;;;;5080054;28;20531;-65
2023/07/29 02:17:15;;;;;;;1.02;0.77;;;24.10;53.40;;;;;;5077932;28;20024;-64
2023/07/29 02:19:41;;;;;;;1.00;0.90;;;24.10;53.40;;;;;;5077880;28;20020;-64
2023/07/29 02:22:06;;;;;;;1.13;0.90;;;24.10;53.40;;;;;;5078645;28;20387;-64
2023/07/29 02:24:32;;;;;;;1.00;0.85;;;24.10;53.30;;;;;;5079641;28;20043;-70
2023/07/29 02:26:58;;;;;;;0.90;0.80;;;24.10;53.30;;;;;;5077720;28;20064;-70
2023/07/29 02:29:24;;;;;;;1.00;0.80;;;24.00;53.30;;;;;;5078082;28;20428;-71
2023/07/29 02:31:50;;;;;;;0.80;0.70;;;24.00;53.30;;;;;;5080138;28;20111;-69
2023/07/29 02:34:16;;;;;;;0.82;0.80;;;24.00;53.30;;;;;;5079190;28;20110;-70
2023/07/29 02:36:42;;;;;;;1.08;0.80;;;24.00;53.30;;;;;;5079370;28;20047;-71
2023/07/29 02:39:07;;;;;;;0.85;0.80;;;24.00;53.20;;;;;;5079844;28;20032;-71
2023/07/29 02:41:33;;;;;;;1.17;0.90;;;24.00;53.30;;;;;;5077264;28;20086;-70
2023/07/29 02:43:59;;;;;;;1.20;0.90;;;24.00;53.30;;;;;;5078456;28;20059;-69
2023/07/29 02:46:24;;;;;;;1.08;0.90;;;24.00;53.30;;;;;;5078406;28;20073;-71
2023/07/29 02:48:50;;;;;;;1.10;0.80;;;24.00;53.20;;;;;;5080523;28;20090;-71
2023/07/29 02:51:16;;;;;;;1.35;0.90;;;24.00;53.20;;;;;;5079659;28;20107;-71
2023/07/29 02:53:42;;;;;;;0.98;0.80;;;24.00;53.30;;;;;;5079557;28;20074;-70
2023/07/29 02:56:09;;;;;;;1.38;0.88;;;24.00;53.30;;;;;;5077584;28;20791;-71
2023/07/29 02:58:36;;;;;;;1.10;0.90;;;24.00;53.30;;;;;;5078338;28;20025;-70
2023/07/29 03:01:05;;;;;;;1.20;0.90;;;24.00;53.30;;;;;;5079782;28;20496;-71
2023/07/29 03:03:32;;;;;;;1.08;0.90;;;24.00;53.20;;;;;;5080161;28;20025;-71
2023/07/29 03:06:01;;;;;;;1.30;0.93;;;24.00;53.30;;;;;;5077115;28;20024;-71
2023/07/29 03:08:26;;;;;;;0.85;0.80;;;24.00;53.30;;;;;;5078941;28;20116;-72
2023/07/29 03:10:52;;;;;;;1.27;0.80;;;24.00;53.30;;;;;;5079022;28;20103;-71
2023/07/29 03:13:17;;;;;;;1.00;0.90;;;24.00;53.20;;;;;;5077221;28;20031;-73
2023/07/29 03:15:43;;;;;;;0.95;0.80;;;24.00;53.20;;;;;;5079757;28;20035;-70
2023/07/29 03:18:08;;;;;;;1.10;0.82;;;24.00;53.30;;;;;;5077638;28;20021;-72
2023/07/29 03:20:34;;;;;;;0.80;0.80;;;23.90;53.20;;;;;;5077340;28;20391;-70
2023/07/29 03:23:00;;;;;;;1.02;0.93;;;24.00;53.20;;;;;;5077995;28;20017;-71
2023/07/29 03:25:25;;;;;;;1.30;0.90;;;23.90;53.70;;;;;;5078936;28;20608;-68
2023/07/29 03:27:51;;;;;;;0.80;0.70;;;24.00;53.30;;;;;;5079930;28;20035;-70
2023/07/29 03:30:21;;;;;;;0.90;0.80;;;23.90;53.20;;;;;;5078165;28;20028;-69
2023/07/29 03:32:47;;;;;;;1.02;0.90;;;24.00;53.30;;;;;;5079324;28;20023;-69
2023/07/29 03:35:12;;;;;;;1.20;0.82;;;23.90;53.20;;;;;;5076660;28;20459;-69
2023/07/29 03:37:38;;;;;;;1.00;0.90;;;24.00;53.20;;;;;;5076958;28;20056;-69
2023/07/29 03:40:05;;;;;;;1.00;0.90;;;24.00;53.20;;;;;;5079121;28;20483;-68
2023/07/29 03:42:30;;;;;;;1.20;0.90;;;23.90;53.20;;;;;;5076464;28;20495;-69
2023/07/29 03:44:56;;;;;;;1.00;0.90;;;23.90;53.20;;;;;;5062842;28;20028;-69
2023/07/29 03:47:21;;;;;;;1.13;0.90;;;23.90;53.20;;;;;;5077903;28;20870;-69
2023/07/29 03:49:47;;;;;;;1.02;0.90;;;23.90;53.20;;;;;;5078257;28;20032;-68
2023/07/29 03:52:13;;;;;;;1.10;0.80;;;23.90;53.20;;;;;;5076310;28;20033;-69
2023/07/29 03:54:38;;;;;;;1.10;0.82;;;23.90;53.20;;;;;;5077585;28;20051;-68
2023/07/29 03:57:04;;;;;;;0.90;0.80;;;23.90;53.20;;;;;;5079910;28;20144;-68
2023/07/29 03:59:30;;;;;;;1.15;0.90;;;23.90;53.20;;;;;;5076215;28;20028;-68
2023/07/29 04:01:55;;;;;;;0.98;0.82;;;23.90;53.10;;;;;;5080764;28;20044;-66
2023/07/29 04:04:21;;;;;;;1.20;0.90;;;23.90;53.10;;;;;;5080748;28;20032;-68
2023/07/29 04:06:47;;;;;;;0.80;0.80;;;23.90;53.10;;;;;;5081689;28;20031;-67
2023/07/29 04:09:12;;;;;;;1.15;0.90;;;23.90;53.10;;;;;;5082720;28;20024;-67
2023/07/29 04:11:38;;;;;;;1.02;0.88;;;23.90;53.10;;;;;;5082079;28;20024;-69
2023/07/29 04:14:04;;;;;;;0.88;0.80;;;23.90;53.10;;;;;;5082653;28;20435;-67
2023/07/29 04:16:29;;;;;;;1.00;0.80;;;23.90;53.10;;;;;;5080586;28;20027;-69
2023/07/29 04:18:55;;;;;;;0.80;0.80;;;23.90;53.10;;;;;;5081308;28;20102;-67
2023/07/29 04:21:21;;;;;;;0.90;0.80;;;23.90;53.10;;;;;;5081823;28;20557;-67
2023/07/29 04:23:46;;;;;;;2.05;0.98;;;23.90;53.10;;;;;;5081884;28;20027;-67
2023/07/29 04:26:12;;;;;;;1.10;0.82;;;23.90;53.00;;;;;;5083490;28;21404;-69
2023/07/29 04:28:37;;;;;;;1.05;0.77;;;23.90;53.10;;;;;;5081932;28;20185;-67
2023/07/29 04:31:03;;;;;;;0.90;0.80;;;23.90;53.10;;;;;;5081999;28;20024;-68
2023/07/29 04:33:32;;;;;;;1.27;0.80;;;23.90;53.10;;;;;;5081428;28;20028;-68
2023/07/29 04:35:57;;;;;;;1.00;0.80;;;23.90;53.10;;;;;;5081690;28;20043;-69
2023/07/29 04:38:35;;;;;;;1.08;0.80;;;23.90;53.10;;;;;;5081060;28;20086;-69
2023/07/29 04:41:01;;;;;;;0.90;0.80;;;23.90;53.10;;;;;;5083016;28;20031;-70
2023/07/29 04:43:28;;;;;;;0.93;0.80;;;23.80;53.00;;;;;;5082044;28;20408;-69
2023/07/29 04:45:54;;;;;;;1.10;0.90;;;23.80;53.00;;;;;;5082786;28;20020;-70
2023/07/29 04:48:20;;;;;;;0.90;0.80;;;23.80;53.00;;;;;;5082392;28;20029;-69
2023/07/29 04:50:45;;;;;;;1.08;0.70;;;23.80;53.00;;;;;;5080911;28;20021;-70
2023/07/29 04:53:11;;;;;;;1.15;0.80;;;23.90;53.10;;;;;;5080049;28;20475;-70
2023/07/29 04:55:37;;;;;;;0.85;0.73;;;23.90;53.00;;;;;;5069784;28;20114;-70
2023/07/29 04:58:02;;;;;;;1.65;0.80;;;23.80;53.00;;;;;;5083526;28;20032;-71
2023/07/29 05:00:28;;;;;;;0.88;0.80;;;23.90;53.00;;;;;;5066851;28;20052;-70
2023/07/29 05:02:53;;;;;;;1.10;0.80;;;23.80;53.00;;;;;;5081362;28;20020;-70
2023/07/29 05:05:19;;;;;;;0.82;0.73;;;23.90;53.00;;;;;;5081013;28;20035;-68
2023/07/29 05:07:45;;;;;;;1.20;0.90;;;23.80;53.00;;;;;;5080163;28;20032;-68
2023/07/29 05:10:11;;;;;;;1.45;0.90;;;23.80;53.00;;;;;;5080483;28;20035;-68
2023/07/29 05:12:36;;;;;;;1.13;0.82;;;23.80;53.00;;;;;;5080661;28;20443;-68
2023/07/29 05:15:02;;;;;;;0.70;0.70;;;23.80;53.00;;;;;;5082748;28;20043;-68
2023/07/29 05:17:28;;;;;;;0.90;0.80;;;23.80;53.00;;;;;;5079628;28;20021;-68
2023/07/29 05:19:53;;;;;;;0.88;0.80;;;23.80;53.60;;;;;;5063395;28;20032;-68
2023/07/29 05:22:19;;;;;;;1.02;0.80;;;23.80;53.10;;;;;;5079112;28;20460;-68
2023/07/29 05:24:45;;;;;;;1.08;0.73;;;23.80;53.10;;;;;;5078981;28;20511;-68
2023/07/29 05:27:10;;;;;;;0.95;0.80;;;23.80;53.00;;;;;;5082130;28;20463;-68
2023/07/29 05:29:36;;;;;;;0.82;0.80;;;23.80;53.00;;;;;;5081332;28;20812;-68
2023/07/29 05:32:02;;;;;;;1.13;0.80;;;23.80;53.00;;;;;;5080936;28;20044;-68
2023/07/29 05:34:27;;;;;;;1.42;0.80;;;23.80;53.60;;;;;;5078822;28;20451;-68
2023/07/29 05:36:53;;;;;;;1.98;1.00;;;23.80;53.00;;;;;;5079321;28;20024;-68
2023/07/29 05:39:18;;;;;;;1.00;0.80;;;23.80;53.00;;;;;;5082556;28;20113;-68
2023/07/29 05:41:45;;;;;;;0.98;0.70;;;23.80;53.00;;;;;;5081502;28;20020;-68
2023/07/29 05:44:11;;;;;;;1.20;0.80;;;23.80;53.00;;;;;;5080076;28;20031;-68
2023/07/29 05:46:36;;;;;;;0.80;0.80;;;23.80;53.10;;;;;;5081330;28;20741;-69
2023/07/29 05:49:02;;;;;;;0.70;0.70;;;23.80;53.00;;;;;;5080427;28;20204;-69
2023/07/29 05:51:28;;;;;;;0.98;0.65;;;23.80;53.00;;;;;;5078509;28;20472;-68
2023/07/29 05:53:53;;;;;;;0.60;0.60;;;23.70;53.00;;;;;;5064096;28;20043;-68
2023/07/29 05:56:19;;;;;;;0.77;0.70;;;23.80;53.00;;;;;;5060594;28;20032;-66
2023/07/29 05:58:45;;;;;;;0.60;0.60;;;23.70;53.50;;;;;;5079124;28;20372;-65
2023/07/29 06:01:10;;;;;;;0.70;0.70;;;23.80;53.60;;;;;;5079832;28;20032;-65
2023/07/29 06:03:36;;;;;;;0.75;0.70;;;23.80;53.00;;;;;;5082231;28;20154;-65
2023/07/29 06:06:01;;;;;;;0.85;0.80;;;23.70;53.00;;;;;;5078771;28;20024;-65
2023/07/29 06:08:29;;;;;;;1.02;0.80;;;23.70;53.00;;;;;;5077893;28;20100;-65
2023/07/29 06:10:54;;;;;;;1.00;0.70;;;23.70;53.50;;;;;;5081528;28;20040;-67
2023/07/29 06:13:20;;;;;;;1.10;0.80;;;23.70;53.00;;;;;;5079344;28;20024;-65
2023/07/29 06:15:45;;;;;;;1.13;0.90;;;23.70;53.00;;;;;;5063397;28;20538;-69
2023/07/29 06:18:11;;;;;;;1.30;0.90;;;23.70;53.00;;;;;;5078841;28;20080;-69
2023/07/29 06:20:37;;;;;;;1.23;0.77;;;23.70;53.00;;;;;;5078871;28;20123;-69
2023/07/29 06:23:03;;;;;;;0.95;0.70;;;23.70;53.00;;;;;;5060112;28;20027;-69
2023/07/29 06:25:29;;;;;;;0.80;0.75;;;23.80;53.10;;;;;;5077821;28;20032;-69
2023/07/29 06:27:54;;;;;;;1.10;0.90;;;23.70;53.10;;;;;;5079963;28;20898;-69
2023/07/29 06:30:20;;;;;;;1.02;0.80;;;23.70;53.10;;;;;;5080255;28;20025;-69
2023/07/29 06:32:46;;;;;;;0.98;0.80;;;23.70;53.10;;;;;;5080104;28;20601;-69
2023/07/29 06:35:12;;;;;;;1.00;0.80;;;23.70;53.20;;;;;;5079914;28;20034;-69
2023/07/29 06:37:37;;;;;;;1.13;0.80;;;23.70;53.20;;;;;;5078363;28;20024;-69
2023/07/29 06:40:03;;;;;;;1.08;0.90;;;23.70;53.20;;;;;;5080648;28;20395;-69
2023/07/29 06:42:29;;;;;;;1.33;0.90;;;23.70;53.20;;;;;;5076722;28;20022;-69
2023/07/29 06:44:55;;;;;;;1.10;0.80;;;23.70;53.30;;;;;;5078305;28;20031;-70
2023/07/29 06:47:20;;;;;;;1.10;0.90;;;23.70;53.30;;;;;;5080245;28;20030;-69
2023/07/29 06:49:47;;;;;;;1.25;0.90;;;23.70;53.30;;;;;;5080801;28;20028;-69
2023/07/29 06:52:12;;;;;;;1.10;0.90;;;23.70;53.30;;;;;;5076978;28;20036;-69
2023/07/29 06:54:38;;;;;;;1.42;0.95;;;23.70;53.30;;;;;;5079616;28;20032;-69
2023/07/29 06:57:04;;;;;;;1.05;0.90;;;23.70;53.30;;;;;;5080493;28;20524;-69
2023/07/29 06:59:29;;;;;;;0.80;0.80;;;23.70;53.30;;;;;;5078421;28;20082;-68
2023/07/29 07:01:55;;;;;;;1.15;0.82;;;23.70;53.30;;;;;;5078329;28;20067;-69
2023/07/29 07:04:21;;;;;;;1.08;0.90;;;23.70;53.40;;;;;;5078947;28;20036;-68
2023/07/29 07:06:46;;;;;;;0.98;0.80;;;23.70;53.40;;;;;;5075209;28;20024;-69
2023/07/29 07:09:12;;;;;;;1.52;1.10;;;23.70;53.40;;;;;;5077583;28;20028;-68
2023/07/29 07:11:37;;;;;;;1.20;0.90;;;23.70;53.40;;;;;;5077903;28;20035;-66
2023/07/29 07:14:03;;;;;;;1.27;0.90;;;23.70;53.50;;;;;;5079843;28;20035;-67
2023/07/29 07:16:30;;;;;;;1.38;1.00;;;23.70;53.40;;;;;;5062870;28;20072;-69
2023/07/29 07:18:56;;;;;;;0.98;0.88;;;23.70;53.40;;;;;;5078290;28;20028;-66
2023/07/29 07:21:22;;;;;;;1.45;0.85;;;23.70;53.40;;;;;;5058339;28;20394;-70
2023/07/29 07:23:50;;;;;;;0.93;0.80;;;23.70;53.40;;;;;;5059094;28;20024;-68
2023/07/29 07:26:15;;;;;;;1.35;0.90;;;23.70;53.40;;;;;;5078424;28;20483;-66
2023/07/29 07:28:41;;;;;;;1.10;0.90;;;23.70;53.50;;;;;;5060013;28;20036;-66
2023/07/29 07:31:06;;;;;;;1.52;1.00;;;23.70;53.50;;;;;;5078002;28;20035;-66
2023/07/29 07:33:32;;;;;;;1.48;0.90;;;23.70;53.40;;;;;;5079007;28;20543;-66
2023/07/29 07:35:58;;;;;;;1.00;0.90;;;23.70;53.40;;;;;;5077704;28;20033;-66
2023/07/29 07:38:23;;;;;;;1.15;0.90;;;23.70;53.50;;;;;;5076602;28;20514;-65
2023/07/29 07:40:54;;;;;;;1.20;0.93;;;23.70;53.50;;;;;;5062611;28;20502;-67
2023/07/29 07:43:20;;;;;;;0.95;0.90;;;23.70;54.00;;;;;;5075037;28;20017;-66
2023/07/29 07:45:46;;;;;;;1.50;1.00;;;23.70;53.50;;;;;;5078418;28;20040;-65
2023/07/29 07:48:12;;;;;;;1.10;0.90;;;23.70;53.50;;;;;;5080516;28;20032;-66
2023/07/29 07:50:39;;;;;;;1.48;1.10;;;23.70;53.50;;;;;;5078426;28;20032;-66
2023/07/29 07:53:05;;;;;;;1.38;1.00;;;23.70;53.50;;;;;;5057965;28;20399;-65
2023/07/29 07:55:31;;;;;;;1.25;0.90;;;23.70;53.50;;;;;;5077231;28;20036;-66
2023/07/29 07:57:56;;;;;;;1.25;0.90;;;23.70;53.50;;;;;;5077629;28;20035;-65
2023/07/29 08:00:22;;;;;;;1.20;1.00;;;23.70;53.50;;;;;;5077513;28;20031;-67
2023/07/29 08:02:47;;;;;;;1.40;0.98;;;23.60;53.50;;;;;;5059042;28;20025;-67
2023/07/29 08:05:13;;;;;;;1.10;0.90;;;23.60;53.50;;;;;;5079095;28;20171;-69
2023/07/29 08:07:39;;;;;;;1.05;0.80;;;23.70;53.50;;;;;;5062101;28;20033;-70
2023/07/29 08:10:05;;;;;;;1.30;1.00;;;23.70;53.50;;;;;;5076592;28;20036;-69
2023/07/29 08:12:31;;;;;;;1.08;0.90;;;23.60;53.50;;;;;;5077028;28;20024;-71
2023/07/29 08:14:56;;;;;;;1.50;1.00;;;23.60;53.50;;;;;;5062755;28;20115;-70
2023/07/29 08:17:22;;;;;;;1.25;0.95;;;23.70;53.50;;;;;;5079089;28;20025;-70
2023/07/29 08:19:48;;;;;;;1.30;1.00;;;23.70;53.50;;;;;;5078284;28;20738;-70
2023/07/29 08:22:13;;;;;;;0.93;0.82;;;23.70;53.40;;;;;;5075926;28;20046;-70
2023/07/29 08:24:39;;;;;;;1.00;0.90;;;23.70;53.50;;;;;;5079183;28;20552;-71
2023/07/29 08:27:05;;;;;;;1.90;1.00;;;23.70;53.50;;;;;;5079825;28;20491;-70
2023/07/29 08:29:30;;;;;;;1.30;0.90;;;23.60;53.40;;;;;;5062246;28;20032;-70
2023/07/29 08:31:56;;;;;;;1.67;1.02;;;23.70;53.40;;;;;;5078395;28;20105;-70
2023/07/29 08:34:22;;;;;;;1.15;1.00;;;23.70;53.40;;;;;;5078955;28;20892;-70
2023/07/29 08:36:48;;;;;;;1.65;1.00;;;23.70;53.40;;;;;;5077950;28;20112;-70
2023/07/29 08:39:13;;;;;;;1.23;0.90;;;23.60;53.30;;;;;;5077208;28;20020;-71
2023/07/29 08:41:51;;;;;;;1.30;1.00;;;23.70;53.30;;;;;;5077447;28;20020;-69
2023/07/29 08:44:24;;;;;;;2.50;1.40;;;23.70;53.60;;;;;;5077547;28;20382;-71
2023/07/29 08:46:51;;;;;;;1.95;1.30;;;23.70;54.20;;;;;;5078591;28;20028;-70
2023/07/29 08:49:19;;;;;;;1.80;1.23;;;23.80;53.80;;;;;;5082084;28;20111;-70
2023/07/29 08:51:50;;;;;;;2.08;1.30;;;23.80;53.80;;;;;;5081391;28;20926;-70
2023/07/29 08:54:17;;;;;;;2.53;1.40;;;23.90;53.80;;;;;;5079482;28;20025;-69
2023/07/29 08:56:43;;;;;;;2.63;1.30;;;23.90;53.80;;;;;;5069550;28;20024;-70
2023/07/29 08:59:10;;;;;;;3.45;1.50;;;23.90;53.70;;;;;;5065950;28;20144;-70
2023/07/29 09:01:39;;;;;;;2.25;1.25;;;23.90;53.80;;;;;;5083584;28;20048;-70
2023/07/29 09:04:05;;;;;;;2.85;1.30;;;24.00;53.90;;;;;;5081719;28;20059;-69
2023/07/29 09:06:35;;;;;;;1.88;1.30;;;24.00;53.80;;;;;;5083457;28;20522;-70
2023/07/29 09:09:01;;;;;;;1.80;1.30;;;24.00;53.80;;;;;;5079948;28;20532;-70
2023/07/29 09:11:27;;;;;;;1.55;1.23;;;24.00;53.80;;;;;;5081964;28;20035;-69
2023/07/29 09:13:53;;;;;;;2.47;1.20;;;24.00;53.80;;;;;;5081850;28;20032;-69
2023/07/29 09:16:21;;;;;;;2.40;1.42;;;24.00;53.80;;;;;;5081728;28;20024;-69
2023/07/29 09:18:50;;;;;;;1.58;1.20;;;24.10;53.80;;;;;;5081813;28;20070;-69
2023/07/29 09:21:17;;;;;;;1.75;1.23;;;24.10;53.80;;;;;;5081764;28;20028;-69
2023/07/29 09:23:44;;;;;;;1.77;1.20;;;24.10;53.80;;;;;;5079235;28;20030;-69
2023/07/29 09:26:10;;;;;;;2.03;1.30;;;24.10;53.70;;;;;;5080857;28;20074;-70
2023/07/29 09:28:38;;;;;;;2.22;1.30;;;24.10;53.60;;;;;;5080334;28;20055;-70
2023/07/29 09:31:04;;;;;;;2.15;1.30;;;24.10;53.60;;;;;;5081408;28;20016;-70
2023/07/29 09:33:35;;;;;;;2.03;1.20;;;24.20;53.70;;;;;;5079027;28;20032;-70
2023/07/29 09:36:01;;;;;;;2.40;1.30;;;24.20;53.70;;;;;;5079996;28;20395;-70
2023/07/29 09:38:27;;;;;;;2.00;1.40;;;24.20;53.60;;;;;;5079790;28;20030;-69
2023/07/29 09:40:56;;;;;;;2.05;1.40;;;24.20;53.60;;;;;;5081445;28;20021;-70
2023/07/29 09:43:28;;;;;;;2.33;1.38;;;24.20;53.60;;;;;;5079346;28;20455;-70
2023/07/29 09:45:54;;;;;;;2.92;1.40;;;24.30;53.70;;;;;;5080883;28;20037;-67
2023/07/29 09:48:23;;;;;;;2.10;1.30;;;24.30;53.60;;;;;;5081139;28;20030;-66
2023/07/29 09:50:48;;;;;;;1.70;1.30;;;24.30;53.50;;;;;;5070577;28;20442;-65
2023/07/29 09:53:14;;;;;;;2.20;1.50;;;24.30;53.60;;;;;;5078756;28;20056;-65
2023/07/29 09:55:45;;;;;;;2.13;1.35;;;24.30;53.50;;;;;;5079384;28;20115;-65
2023/07/29 09:58:11;;;;;;;2.55;1.30;;;24.30;53.50;;;;;;5080446;28;20122;-65
2023/07/29 10:00:38;;;;;;;1.83;1.30;;;24.40;53.40;;;;;;5079974;28;20462;-66
2023/07/29 10:03:05;;;;;;;1.90;1.27;;;24.40;53.40;;;;;;5079416;28;20104;-65
2023/07/29 10:05:32;;;;;;;2.00;1.33;;;24.40;53.40;;;;;;5078731;28;20033;-66
2023/07/29 10:07:58;;;;;;;1.95;1.30;;;24.40;53.50;;;;;;5080276;28;20062;-67
2023/07/29 10:10:24;;;;;;;1.70;1.20;;;24.50;53.50;;;;;;5081548;28;20112;-67
2023/07/29 10:12:50;;;;;;;1.45;1.05;;;24.50;53.60;;;;;;5080256;28;20020;-66
2023/07/29 10:15:17;;;;;;;1.92;1.20;;;24.50;53.60;;;;;;5079177;28;20021;-66
2023/07/29 10:17:42;;;;;;;1.90;1.30;;;24.50;53.70;;;;;;5079071;28;20024;-66
2023/07/29 10:20:10;;;;;;;1.50;1.15;;;24.50;53.60;;;;;;5081588;28;20043;-68
2023/07/29 10:22:41;;;;;;;1.63;1.10;;;24.50;53.60;;;;;;5079670;28;20040;-65
2023/07/29 10:25:17;;;;;;;1.65;1.10;;;24.50;53.60;;;;;;5077936;28;20563;-68
2023/07/29 10:27:49;;;;;;;2.25;1.30;;;24.50;53.50;;;;;;5079759;28;20049;-70
2023/07/29 10:30:15;;;;;;;2.80;1.40;;;24.50;53.30;;;;;;5061452;28;20035;-69
2023/07/29 10:32:44;;;;;;;2.13;1.13;;;24.60;53.30;;;;;;5079032;28;20917;-70
2023/07/29 10:35:13;;;;;;;1.83;1.23;;;24.60;53.20;;;;;;5080811;28;20020;-65
2023/07/29 10:37:39;;;;;;;;;;;24.60;53.10;;;;;;5081704;28;20400;-69
2023/07/29 10:40:10;;;;;;;2.25;1.30;;;24.70;53.10;;;;;;5081019;28;19907;-70
2023/07/29 10:42:37;;;;;;;2.53;1.30;;;24.70;53.00;;;;;;5079487;28;20027;-70
2023/07/29 10:45:36;;;;;;;2.00;1.30;;;24.70;53.00;;;;;;5079613;28;20108;-70
2023/07/29 10:48:11;;;;;;;2.05;1.33;;;24.70;52.90;;;;;;5080503;28;20040;-70
2023/07/29 10:50:37;;;;;;;1.85;1.33;;;24.80;53.20;;;;;;5080180;28;20445;-70
2023/07/29 10:53:03;;;;;;;1.80;1.20;;;24.80;53.20;;;;;;5079053;28;20036;-70
2023/07/29 10:55:33;;;;;;;1.75;1.30;;;24.80;53.20;;;;;;5078955;28;20075;-65
2023/07/29 10:58:12;;;;;;;2.30;1.38;;;24.80;53.30;;;;;;5064315;28;20024;-66
2023/07/29 11:00:39;;;;;;;1.90;1.20;;;24.80;53.40;;;;;;5080082;28;20028;-65
2023/07/29 11:03:08;;;;;;;1.45;1.20;;;24.80;53.40;;;;;;5076818;28;20021;-64
2023/07/29 11:05:50;;;;;;;;;;;24.80;53.90;;;;;;5060961;28;20028;-64
2023/07/29 11:08:18;;;;;;;2.08;1.40;;;24.80;53.40;;;;;;5078527;28;19915;-65
2023/07/29 11:10:44;;;;;;;1.40;1.10;;;24.80;53.20;;;;;;5078584;28;20053;-67
2023/07/29 11:13:11;;;;;;;1.40;1.05;;;24.90;53.10;;;;;;5079066;28;20031;-65
2023/07/29 11:15:39;;;;;;;1.48;1.10;;;24.90;53.10;;;;;;5069431;28;20080;-66
2023/07/29 11:18:06;;;;;;;2.78;1.30;;;24.90;53.60;;;;;;5062724;28;20055;-66
2023/07/29 11:20:33;;;;;;;2.70;1.20;;;24.90;53.10;;;;;;5077505;28;20101;-65
2023/07/29 11:23:01;;;;;;;1.60;1.23;;;25.00;53.10;;;;;;5076670;28;20039;-65
2023/07/29 11:25:28;;;;;;;1.70;1.10;;;24.90;53.10;;;;;;5076569;28;20028;-64
2023/07/29 11:27:57;;;;;;;1.50;1.10;;;25.00;53.00;;;;;;5077815;28;20032;-66
2023/07/29 11:30:23;;;;;;;1.43;1.03;;;25.00;53.00;;;;;;5077497;28;20424;-65
2023/07/29 11:32:49;;;;;;;2.13;1.25;;;25.00;53.00;;;;;;5066468;28;20293;-66
2023/07/29 11:35:16;;;;;;;1.33;1.10;;;25.00;53.00;;;;;;5078337;28;20119;-66
2023/07/29 11:37:47;;;;;;;1.55;1.08;;;25.10;53.00;;;;;;5077645;28;20086;-66
2023/07/29 11:40:21;;;;;;;1.63;1.00;;;25.00;53.40;;;;;;5078978;28;20383;-67
2023/07/29 11:42:50;;;;;;;1.23;1.05;;;25.10;52.90;;;;;;5077897;28;20151;-65
2023/07/29 11:45:15;;;;;;;2.60;1.40;;;25.10;52.90;;;;;;5078092;28;20032;-68
2023/07/29 11:47:42;;;;;;;1.73;1.20;;;25.10;52.90;;;;;;5077966;28;20038;-69
2023/07/29 11:50:09;;;;;;;1.50;1.00;;;25.10;53.00;;;;;;5061956;28;20394;-67
2023/07/29 11:52:36;;;;;;;1.48;1.10;;;25.10;53.00;;;;;;5076251;28;20024;-67
2023/07/29 11:55:04;;;;;;;2.47;1.23;;;25.10;52.90;;;;;;5078168;28;20028;-68
2023/07/29 11:57:37;;;;;;;1.20;1.00;;;25.10;52.90;;;;;;5080082;28;20133;-70
2023/07/29 12:00:09;;;;;;;1.60;1.23;;;25.10;53.50;;;;;;5079725;28;20016;-71
2023/07/29 12:02:37;;;;;;;1.52;1.10;;;25.10;53.00;;;;;;5063175;28;20536;-71
2023/07/29 12:05:05;;;;;;;1.92;0.98;;;25.10;52.90;;;;;;5080005;28;20036;-71
2023/07/29 12:07:31;;;;;;;2.00;1.15;;;25.10;53.10;;;;;;5058854;28;20035;-70
2023/07/29 12:09:56;;;;;;;1.75;1.10;;;25.10;53.10;;;;;;5065949;28;20025;-69
2023/07/29 12:12:23;;;;;;;1.67;1.10;;;25.10;53.00;;;;;;5078548;28;20038;-71
2023/07/29 12:14:49;;;;;;;1.67;1.20;;;25.10;53.10;;;;;;5078466;28;20329;-70
2023/07/29 12:17:15;;;;;;;1.38;1.05;;;25.10;53.00;;;;;;5064171;28;20031;-65
2023/07/29 12:19:42;;;;;;;1.50;1.13;;;25.20;53.00;;;;;;5065606;28;20033;-65
2023/07/29 12:22:09;;;;;;;1.58;1.10;;;25.20;53.00;;;;;;5079827;28;20647;-66
2023/07/29 12:24:37;;;;;;;1.90;1.33;;;25.20;53.00;;;;;;5082009;28;20028;-66
2023/07/29 12:27:03;;;;;;;1.40;1.00;;;25.20;53.50;;;;;;5080946;28;20029;-67
2023/07/29 12:29:29;;;;;;;1.98;1.30;;;25.20;53.00;;;;;;5080147;28;20039;-68
2023/07/29 12:32:00;;;;;;;2.17;1.40;;;25.30;53.00;;;;;;5082136;28;20024;-66
2023/07/29 12:34:30;;;;;;;1.55;1.15;;;25.30;53.10;;;;;;5081556;28;20031;-66
2023/07/29 12:36:58;;;;;;;1.67;1.10;;;25.30;53.00;;;;;;5081500;28;20104;-66
2023/07/29 12:39:26;;;;;;;1.33;1.10;;;25.30;53.10;;;;;;5078703;28;20025;-67
2023/07/29 12:41:56;;;;;;;1.60;1.17;;;25.30;53.00;;;;;;5081256;28;20090;-67
2023/07/29 12:44:23;;;;;;;1.75;1.25;;;25.30;53.10;;;;;;5082067;28;20032;-66
2023/07/29 12:46:49;;;;;;;1.90;1.30;;;25.30;53.00;;;;;;5083666;28;20488;-66